Time;durP1;ratioP1;P1;durP2;ratioP2;P2;SDS_P1;SDS_P2;PMS_P1;PMS_P2;Temp;Humidity;BMP_temperature;BMP_pressure;BME280_temperature;BME280_humidity;BME280_pressure;Samples;Min_cycle;Max_cycle;Signal;HPM_P1;HPM_P2
2023/08/09 00:01:37;;;;;;;5.75;1.92;;;;;;;12.92;100.00;100323.16;5016865;28;20042;-55
2023/08/09 00:04:05;;;;;;;4.28;2.00;;;;;;;12.91;100.00;100331.19;5018296;28;20072;-57
2023/08/09 00:06:32;;;;;;;5.93;1.85;;;;;;;12.89;100.00;100333.09;5023086;28;20299;-57
2023/08/09 00:08:59;;;;;;;11.60;2.40;;;;;;;12.88;100.00;100323.50;5026561;28;20084;-56
2023/08/09 00:11:27;;;;;;;3.53;1.75;;;;;;;12.87;100.00;100333.19;5026843;28;20056;-58
2023/08/09 00:13:54;;;;;;;4.32;2.05;;;;;;;12.87;100.00;100327.06;5027050;28;20402;-56
2023/08/09 00:16:21;;;;;;;4.53;2.08;;;;;;;12.86;100.00;100331.50;5027833;28;20057;-58
2023/08/09 00:18:49;;;;;;;4.30;1.60;;;;;;;12.85;100.00;100336.91;5026370;28;20073;-58
2023/08/09 00:21:16;;;;;;;3.20;1.60;;;;;;;12.82;100.00;100337.97;5027513;28;20049;-53
2023/08/09 00:23:43;;;;;;;4.20;1.67;;;;;;;12.80;100.00;100337.25;5030530;28;20057;-59
2023/08/09 00:26:11;;;;;;;3.78;1.80;;;;;;;12.80;100.00;100331.13;5027614;28;20411;-57
2023/08/09 00:28:38;;;;;;;8.88;2.08;;;;;;;12.81;100.00;100338.09;5021102;28;20556;-55
2023/08/09 00:31:06;;;;;;;2.67;1.67;;;;;;;12.79;100.00;100334.69;5023783;28;20333;-53
2023/08/09 00:33:33;;;;;;;4.10;1.70;;;;;;;12.79;100.00;100339.97;5040660;28;20057;-58
2023/08/09 00:36:01;;;;;;;3.55;1.77;;;;;;;12.80;100.00;100336.41;5023866;28;20358;-60
2023/08/09 00:38:28;;;;;;;3.97;1.88;;;;;;;12.81;100.00;100344.22;5022750;28;20103;-57
2023/08/09 00:40:55;;;;;;;6.75;1.75;;;;;;;12.80;100.00;100341.69;5027966;28;20112;-58
2023/08/09 00:43:23;;;;;;;5.57;1.92;;;;;;;12.83;100.00;100349.38;5023853;28;20429;-53
2023/08/09 00:45:50;;;;;;;3.40;1.50;;;;;;;12.82;100.00;100342.41;5021732;28;20045;-53
2023/08/09 00:48:18;;;;;;;6.22;2.10;;;;;;;12.81;100.00;100346.03;5026021;28;20076;-59
2023/08/09 00:50:46;;;;;;;2.63;1.45;;;;;;;12.82;100.00;100345.06;5022730;28;20049;-58
2023/08/09 00:53:13;;;;;;;2.92;1.48;;;;;;;12.83;100.00;100352.03;5023426;28;20125;-58
2023/08/09 00:55:40;;;;;;;3.85;1.30;;;;;;;12.83;100.00;100357.31;5028418;28;20061;-55
2023/08/09 00:58:08;;;;;;;7.20;2.03;;;;;;;12.84;100.00;100348.44;5023298;28;20057;-57
2023/08/09 01:00:35;;;;;;;3.15;1.60;;;;;;;12.84;100.00;100348.44;5023846;28;20502;-59
2023/08/09 01:06:31;;;;;;;4.60;1.42;;;;;;;12.86;100.00;100367.66;5021298;28;20072;-55
2023/08/09 01:09:08;;;;;;;5.95;1.90;;;;;;;12.90;100.00;100366.47;5023258;28;20053;-57
2023/08/09 01:11:49;;;;;;;8.23;1.83;;;;;;;12.90;100.00;100356.75;5022889;28;20062;-58
2023/08/09 01:14:18;;;;;;;6.13;1.75;;;;;;;12.90;100.00;100350.63;5020368;28;20046;-57
2023/08/09 01:16:46;;;;;;;4.53;1.38;;;;;;;12.90;100.00;100345.34;5022191;28;20123;-58
2023/08/09 01:19:29;;;;;;;2.72;1.55;;;;;;;12.89;100.00;100336.59;5022751;28;20057;-55
2023/08/09 01:21:57;;;;;;;5.38;1.85;;;;;;;12.92;100.00;100338.13;5022230;28;20041;-54
2023/08/09 01:24:24;;;;;;;1.55;1.10;;;;;;;12.94;100.00;100346.81;5019317;28;20525;-59
2023/08/09 01:26:52;;;;;;;5.53;2.25;;;;;;;12.95;100.00;100353.78;5029183;28;20119;-59
2023/08/09 01:29:19;;;;;;;5.38;2.25;;;;;;;12.91;100.00;100355.78;5024050;28;20576;-54
2023/08/09 01:31:46;;;;;;;7.50;1.90;;;;;;;12.87;100.00;100351.69;5026576;28;20049;-60
2023/08/09 01:34:14;;;;;;;4.50;1.42;;;;;;;12.84;100.00;100351.94;5026842;28;20430;-58
2023/08/09 01:36:44;;;;;;;3.33;1.73;;;;;;;12.83;100.00;100354.66;5028207;28;20405;-58
2023/08/09 01:39:15;;;;;;;3.85;1.58;;;;;;;12.84;100.00;100356.38;5021108;28;20049;-54
2023/08/09 01:41:43;;;;;;;5.07;1.70;;;;;;;12.83;100.00;100365.22;5008923;28;20484;-58
2023/08/09 01:44:13;;;;;;;10.73;1.65;;;;;;;12.84;100.00;100356.38;5020844;28;20054;-59
2023/08/09 01:46:41;;;;;;;2.67;1.60;;;;;;;12.81;100.00;100354.78;5029705;28;20432;-58
2023/08/09 01:49:10;;;;;;;6.78;2.10;;;;;;;12.83;100.00;100349.38;5021391;28;20061;-59
2023/08/09 01:51:38;;;;;;;7.28;1.67;;;;;;;12.84;100.00;100345.81;5024171;28;20572;-57
2023/08/09 01:54:06;;;;;;;2.90;1.63;;;;;;;12.81;100.00;100352.16;5026874;28;20045;-58
2023/08/09 01:56:34;;;;;;;5.18;1.58;;;;;;;12.81;100.00;100344.22;5027525;28;20149;-55
2023/08/09 01:59:05;;;;;;;5.78;1.58;;;;;;;12.81;100.00;100352.16;5006401;28;20378;-58
2023/08/09 02:01:33;;;;;;;3.38;2.05;;;;;;;12.81;100.00;100346.84;5013842;28;20038;-59
2023/08/09 02:04:00;;;;;;;5.28;1.33;;;;;;;12.81;100.00;100332.81;5024108;28;20049;-58
2023/08/09 02:06:27;;;;;;;2.85;1.50;;;;;;;12.81;100.00;100332.81;5023212;28;20123;-59
2023/08/09 02:08:55;;;;;;;8.57;1.92;;;;;;;12.82;100.00;100334.50;5028365;28;20061;-58
2023/08/09 02:11:22;;;;;;;7.78;1.50;;;;;;;12.80;100.00;100329.31;5027726;28;20298;-55
2023/08/09 02:13:49;;;;;;;6.22;1.50;;;;;;;12.80;100.00;100337.25;5021368;28;20058;-56
2023/08/09 02:16:18;;;;;;;7.70;1.63;;;;;;;12.81;100.00;100331.00;5023973;28;20123;-57
2023/08/09 02:18:45;;;;;;;5.22;1.23;;;;;;;12.82;100.00;100337.13;5027922;28;20151;-58
2023/08/09 02:21:12;;;;;;;5.07;1.75;;;;;;;12.79;100.00;100338.22;5022713;28;20072;-58
2023/08/09 02:23:40;;;;;;;4.78;1.65;;;;;;;12.80;100.00;100341.69;5017997;28;20457;-56
2023/08/09 02:26:07;;;;;;;2.33;1.40;;;;;;;12.81;100.00;100348.66;5023556;28;20123;-59
2023/08/09 02:28:35;;;;;;;4.75;1.70;;;;;;;12.79;100.00;100342.63;5021620;28;20045;-59
2023/08/09 02:31:02;;;;;;;3.70;1.83;;;;;;;12.81;100.00;100340.72;5018824;28;20045;-58
2023/08/09 02:33:29;;;;;;;6.28;1.85;;;;;;;12.80;100.00;100349.63;5023151;28;20453;-56
2023/08/09 02:35:59;;;;;;;5.07;1.27;;;;;;;12.80;100.00;100347.81;5015454;28;20099;-60
2023/08/09 02:38:28;;;;;;;4.50;2.10;;;;;;;12.81;100.00;100351.31;5012786;28;20442;-57
2023/08/09 02:40:55;;;;;;;3.88;2.05;;;;;;;12.81;100.00;100352.16;5011820;28;20069;-59
2023/08/09 02:43:24;;;;;;;2.83;1.42;;;;;;;12.80;100.00;100349.63;5011992;28;20080;-56
2023/08/09 02:45:52;;;;;;;5.47;1.60;;;;;;;12.81;100.00;100353.94;5008627;28;20045;-56
2023/08/09 02:48:20;;;;;;;2.65;1.55;;;;;;;12.80;100.00;100358.38;5008677;28;20068;-57
2023/08/09 02:50:48;;;;;;;4.45;1.92;;;;;;;12.76;100.00;100346.34;5009474;28;20141;-58
2023/08/09 02:53:16;;;;;;;2.47;1.38;;;;;;;12.75;100.00;100349.97;5010751;28;20058;-60
2023/08/09 02:55:44;;;;;;;3.83;1.88;;;;;;;12.75;100.00;100351.75;5010349;28;20508;-60
2023/08/09 02:58:12;;;;;;;4.10;1.80;;;;;;;12.76;100.00;100358.72;5005973;28;20065;-61
2023/08/09 03:00:40;;;;;;;4.78;1.55;;;;;;;12.74;100.00;100358.81;5019963;28;20057;-61
2023/08/09 03:03:07;;;;;;;3.47;1.77;;;;;;;12.73;100.00;100359.78;5020860;28;20049;-55
2023/08/09 03:05:36;;;;;;;3.80;1.40;;;;;;;12.71;100.00;100364.34;5020590;28;20103;-56
2023/08/09 03:08:04;;;;;;;5.13;1.52;;;;;;;12.71;100.00;100366.13;5020705;28;20072;-57
2023/08/09 03:10:31;;;;;;;3.50;1.77;;;;;;;12.67;100.00;100366.34;5022181;28;20069;-58
2023/08/09 03:12:58;;;;;;;3.15;1.88;;;;;;;12.72;100.00;100363.38;5020957;28;20057;-55
2023/08/09 03:15:26;;;;;;;3.78;1.45;;;;;;;12.73;100.00;100366.84;5021199;28;20054;-60
2023/08/09 03:17:53;;;;;;;5.50;1.60;;;;;;;12.81;100.00;100367.16;5011728;28;20068;-61
2023/08/09 03:20:22;;;;;;;2.53;1.15;;;;;;;12.88;100.00;100361.31;5020268;28;20448;-59
2023/08/09 03:22:49;;;;;;;3.90;1.30;;;;;;;12.92;98.75;100360.16;5018146;28;20073;-57
2023/08/09 03:25:17;;;;;;;8.45;1.98;;;;;;;12.92;98.24;100364.56;5009370;28;20119;-58
2023/08/09 03:27:44;;;;;;;5.97;1.70;;;;;;;12.96;97.95;100363.38;5008630;28;20778;-58
2023/08/09 03:30:12;;;;;;;4.28;1.35;;;;;;;12.98;98.20;100364.13;5015806;28;20065;-58
2023/08/09 03:32:39;;;;;;;3.50;1.38;;;;;;;12.98;97.06;100374.69;5022169;28;20390;-58
2023/08/09 03:35:07;;;;;;;6.93;1.80;;;;;;;12.97;97.56;100374.78;5025032;28;20111;-58
2023/08/09 03:37:35;;;;;;;5.63;1.67;;;;;;;12.94;97.95;100386.44;5017420;28;20049;-54
2023/08/09 03:40:11;;;;;;;4.72;1.33;;;;;;;12.91;98.87;100392.78;5021984;28;20433;-58
2023/08/09 03:42:40;;;;;;;3.95;1.48;;;;;;;12.88;99.62;100390.38;5024213;28;20056;-54
2023/08/09 03:45:08;;;;;;;5.55;2.03;;;;;;;12.87;100.00;100387.84;5021329;28;20123;-55
2023/08/09 03:47:36;;;;;;;7.75;2.15;;;;;;;12.86;100.00;100391.44;5015952;28;20050;-54
2023/08/09 03:50:05;;;;;;;5.68;1.58;;;;;;;12.86;100.00;100391.44;5024479;28;20104;-53
2023/08/09 03:52:33;;;;;;;4.18;1.55;;;;;;;12.87;100.00;100399.25;5019454;28;20632;-59
2023/08/09 03:55:00;;;;;;;3.13;1.45;;;;;;;12.87;100.00;100393.13;5022668;28;20414;-56
2023/08/09 03:57:28;;;;;;;7.47;1.65;;;;;;;12.88;100.00;100394.81;5019819;28;21907;-59
2023/08/09 03:59:55;;;;;;;5.18;1.25;;;;;;;12.92;99.39;100396.25;5018987;28;20049;-59
2023/08/09 04:02:22;;;;;;;4.30;1.30;;;;;;;13.00;99.36;100396.56;5024813;28;20115;-59
2023/08/09 04:04:50;;;;;;;4.72;1.55;;;;;;;13.02;99.56;100386.75;5021834;28;20061;-57
2023/08/09 04:07:17;;;;;;;2.58;1.33;;;;;;;13.01;97.79;100392.13;5021799;28;20517;-58
2023/08/09 04:09:44;;;;;;;4.65;1.83;;;;;;;13.02;97.73;100404.41;5022295;28;20111;-57
2023/08/09 04:12:12;;;;;;;5.13;1.73;;;;;;;13.01;97.45;100403.53;5020215;28;20486;-58
2023/08/09 04:14:39;;;;;;;5.35;1.70;;;;;;;13.00;97.40;100398.34;5015971;28;20107;-58
2023/08/09 04:17:06;;;;;;;6.38;1.77;;;;;;;13.00;97.19;100398.34;5019617;28;20053;-56
2023/08/09 04:19:34;;;;;;;6.10;1.70;;;;;;;13.01;97.75;100402.69;5018365;28;20050;-59
2023/08/09 04:22:01;;;;;;;3.92;1.30;;;;;;;13.06;97.70;100408.50;5017872;28;20111;-61
2023/08/09 04:24:28;;;;;;;4.80;1.83;;;;;;;13.07;97.60;100405.75;5021922;28;20053;-58
2023/08/09 04:30:38;;;;;;;3.13;1.42;;;;;;;13.08;97.93;100415.34;5018210;28;20119;-57
2023/08/09 04:33:05;;;;;;;5.28;1.42;;;;;;;13.09;98.39;100424.97;5023085;28;20084;-57
2023/08/09 04:35:33;;;;;;;4.78;1.60;;;;;;;13.13;97.92;100422.94;5021230;28;20046;-59
2023/08/09 04:38:03;;;;;;;4.22;1.38;;;;;;;13.14;97.82;100421.97;5020853;28;20064;-59
2023/08/09 04:40:31;;;;;;;6.47;1.60;;;;;;;13.22;96.65;100430.22;5024763;28;20108;-59
2023/08/09 04:42:59;;;;;;;3.80;1.25;;;;;;;13.26;96.17;100420.28;5022377;28;20053;-58
2023/08/09 04:45:26;;;;;;;5.45;1.75;;;;;;;13.27;95.93;100430.75;5022399;28;20045;-57
2023/08/09 04:47:54;;;;;;;5.07;1.52;;;;;;;13.33;96.02;100432.13;5016363;28;20160;-60
2023/08/09 04:50:21;;;;;;;5.30;1.80;;;;;;;13.41;95.65;100427.06;5019515;28;20089;-59
2023/08/09 04:52:50;;;;;;;3.70;1.67;;;;;;;13.45;95.21;100447.06;5023007;28;20045;-59
2023/08/09 04:55:17;;;;;;;5.65;1.92;;;;;;;13.42;94.48;100444.66;5024372;28;20095;-56
2023/08/09 04:57:44;;;;;;;4.57;1.30;;;;;;;13.46;94.72;100451.38;5023984;28;20088;-54
2023/08/09 05:00:13;;;;;;;5.50;1.50;;;;;;;13.45;94.55;100452.34;5024346;28;20058;-61
2023/08/09 05:02:40;;;;;;;8.07;1.67;;;;;;;13.47;93.95;100447.81;5024513;28;20323;-61
2023/08/09 05:05:09;;;;;;;4.00;1.30;;;;;;;13.42;93.36;100448.13;5021466;28;20053;-58
2023/08/09 05:07:37;;;;;;;15.30;2.50;;;;;;;13.47;92.94;100454.88;5023525;28;20105;-59
2023/08/09 05:10:06;;;;;;;5.47;1.52;;;;;;;13.43;93.07;100452.47;5024737;28;20067;-59
2023/08/09 05:12:34;;;;;;;3.30;1.48;;;;;;;13.45;91.35;100447.06;5025626;28;20201;-59
2023/08/09 05:15:03;;;;;;;6.35;1.90;;;;;;;13.45;91.30;100454.97;5020294;28;20049;-59
2023/08/09 05:17:31;;;;;;;5.50;1.38;;;;;;;13.45;91.10;100456.78;5027429;28;20370;-59
2023/08/09 05:19:58;;;;;;;3.28;1.40;;;;;;;13.39;90.98;100460.72;5023808;28;20556;-57
2023/08/09 05:22:25;;;;;;;9.95;1.70;;;;;;;13.41;91.22;100472.03;5027394;28;20445;-54
2023/08/09 05:24:53;;;;;;;7.22;1.45;;;;;;;13.38;91.01;100465.19;5023415;28;20068;-60
2023/08/09 05:27:20;;;;;;;7.97;1.73;;;;;;;13.42;90.87;100464.00;5024047;28;20353;-56
2023/08/09 05:29:47;;;;;;;7.82;1.50;;;;;;;13.45;89.64;100468.22;5024860;28;20153;-60
2023/08/09 05:32:15;;;;;;;10.80;2.30;;;;;;;13.50;89.76;100466.06;5021997;28;20049;-55
2023/08/09 05:34:43;;;;;;;9.48;2.13;;;;;;;13.51;89.75;100473.06;5026078;28;20577;-57
2023/08/09 05:37:10;;;;;;;7.28;1.60;;;;;;;13.50;87.56;100479.28;5024711;28;20147;-56
2023/08/09 05:39:38;;;;;;;16.05;2.08;;;;;;;13.54;87.69;100462.25;5028789;28;20049;-56
2023/08/09 05:42:05;;;;;;;8.30;2.25;;;;;;;13.59;88.60;100461.91;5025355;28;20128;-56
2023/08/09 05:44:32;;;;;;;11.35;1.92;;;;;;;13.70;88.35;100466.41;5027809;28;20056;-59
2023/08/09 05:47:00;;;;;;;5.57;1.50;;;;;;;13.81;87.69;100467.28;5026782;28;20113;-59
2023/08/09 05:49:28;;;;;;;5.63;1.40;;;;;;;13.84;87.29;100466.22;5024374;28;20064;-59
2023/08/09 05:51:56;;;;;;;5.45;1.58;;;;;;;13.94;86.89;100465.41;5026163;28;20126;-59
2023/08/09 05:54:24;;;;;;;7.75;1.88;;;;;;;13.98;84.60;100465.19;5025260;28;20354;-60
2023/08/09 05:56:51;;;;;;;5.45;1.77;;;;;;;14.11;84.81;100455.34;5024371;28;20068;-55
2023/08/09 05:59:18;;;;;;;6.30;1.20;;;;;;;14.20;84.39;100465.22;5028421;28;20052;-56
2023/08/09 06:01:46;;;;;;;7.85;1.50;;;;;;;14.27;83.73;100468.25;5016643;28;20678;-58
2023/08/09 06:04:15;;;;;;;7.30;1.55;;;;;;;14.41;83.03;100468.03;5026315;28;20077;-58
2023/08/09 06:06:43;;;;;;;8.77;2.58;;;;;;;14.54;82.44;100474.06;5019650;28;20604;-56
2023/08/09 06:09:10;;;;;;;3.30;1.42;;;;;;;14.64;81.68;100474.22;5024056;28;20084;-58
2023/08/09 06:11:37;;;;;;;5.30;1.80;;;;;;;14.79;81.28;100466.88;5020696;28;20154;-57
2023/08/09 06:14:05;;;;;;;10.73;1.83;;;;;;;14.96;80.34;100469.03;5020430;28;20537;-57
2023/08/09 06:16:34;;;;;;;18.10;2.00;;;;;;;14.92;80.27;100476.38;5022553;28;20050;-59
2023/08/09 06:19:02;;;;;;;8.70;1.60;;;;;;;15.00;80.41;100475.78;5027039;28;20050;-57
2023/08/09 06:21:29;;;;;;;6.93;1.98;;;;;;;15.00;78.36;100480.25;5024957;28;20414;-60
2023/08/09 06:24:46;;;;;;;6.90;2.00;;;;;;;14.92;79.27;100479.03;5024911;28;20481;-58
2023/08/09 06:27:39;;;;;;;;;;;;;;;15.01;79.06;100489.88;5020978;28;20045;-54
2023/08/09 06:31:46;;;;;;;6.70;1.90;;;;;;;14.59;80.27;100484.31;5018616;28;20046;-55
2023/08/09 06:34:38;;;;;;;7.43;1.88;;;;;;;14.50;81.23;100493.84;5028167;28;20029;-55
2023/08/09 06:37:06;;;;;;;9.00;1.55;;;;;;;14.46;81.84;100492.38;5027039;28;20050;-59
2023/08/09 06:39:35;;;;;;;7.97;1.98;;;;;;;14.49;81.80;100488.66;5015491;28;20140;-58
2023/08/09 06:42:03;;;;;;;13.65;2.10;;;;;;;14.52;82.10;100489.25;5021128;28;20063;-58
2023/08/09 06:44:32;;;;;;;6.75;1.80;;;;;;;14.61;80.98;100503.59;5024513;28;20049;-55
2023/08/09 06:47:00;;;;;;;4.97;1.38;;;;;;;14.79;81.29;100503.97;5023984;28;20140;-59
2023/08/09 06:49:28;;;;;;;12.35;2.50;;;;;;;14.90;80.48;100501.31;5027204;28;20461;-57
2023/08/09 06:51:57;;;;;;;8.75;1.52;;;;;;;14.96;80.89;100486.75;5025559;28;20177;-59
2023/08/09 06:54:25;;;;;;;5.72;2.08;;;;;;;15.11;80.49;100491.66;5027284;28;20045;-57
2023/08/09 06:56:52;;;;;;;6.13;1.25;;;;;;;15.02;79.99;100495.03;5023439;28;20061;-60
2023/08/09 06:59:19;;;;;;;8.35;2.30;;;;;;;15.08;80.48;100501.66;5025545;28;20104;-56
2023/08/09 07:01:48;;;;;;;5.38;1.58;;;;;;;15.17;78.22;100493.84;5020658;28;20052;-59
2023/08/09 07:04:17;;;;;;;5.85;1.77;;;;;;;15.30;79.04;100498.13;5020150;28;20046;-58
2023/08/09 07:06:44;;;;;;;6.28;1.67;;;;;;;15.43;77.80;100504.13;5019384;28;20544;-59
2023/08/09 07:09:13;;;;;;;7.20;1.40;;;;;;;15.49;77.82;100502.78;5019690;28;20065;-57
2023/08/09 07:11:41;;;;;;;6.78;1.77;;;;;;;15.56;78.84;100506.63;5020676;28;20139;-60
2023/08/09 07:14:08;;;;;;;8.57;1.73;;;;;;;15.62;78.65;100514.91;5021919;28;20171;-60
2023/08/09 07:16:35;;;;;;;7.78;1.77;;;;;;;15.72;77.66;100514.22;5019955;28;20046;-60
2023/08/09 07:19:02;;;;;;;5.65;1.70;;;;;;;15.78;78.33;100511.91;5021506;28;20049;-60
2023/08/09 07:21:30;;;;;;;8.80;1.95;;;;;;;15.95;77.24;100516.66;5022918;28;20260;-59
2023/08/09 07:23:57;;;;;;;12.27;2.30;;;;;;;15.96;75.94;100517.50;5026357;28;20060;-54
2023/08/09 07:26:26;;;;;;;10.40;1.80;;;;;;;16.07;75.96;100516.59;5022479;28;20144;-52
2023/08/09 07:28:53;;;;;;;6.85;2.00;;;;;;;15.94;73.91;100516.78;5023630;28;20140;-53
2023/08/09 07:31:22;;;;;;;7.85;1.90;;;;;;;16.06;74.06;100520.22;5021275;28;20160;-53
2023/08/09 07:33:50;;;;;;;14.15;1.83;;;;;;;16.23;74.09;100529.44;5017071;28;20076;-58
2023/08/09 07:36:18;;;;;;;10.05;1.70;;;;;;;16.14;73.42;100525.75;5022689;28;20140;-58
2023/08/09 07:38:45;;;;;;;4.95;1.92;;;;;;;16.09;73.22;100520.81;5023045;28;20115;-58
2023/08/09 07:41:12;;;;;;;14.55;2.13;;;;;;;16.10;73.12;100530.47;5020381;28;20145;-59
2023/08/09 07:43:40;;;;;;;6.68;1.70;;;;;;;16.02;73.86;100537.38;5023546;28;20583;-60
2023/08/09 07:46:07;;;;;;;10.18;1.85;;;;;;;16.13;73.71;100543.50;5020197;28;20530;-58
2023/08/09 07:48:34;;;;;;;5.28;1.77;;;;;;;16.11;74.11;100547.22;5024390;28;20061;-57
2023/08/09 07:51:02;;;;;;;8.85;1.55;;;;;;;16.25;72.67;100548.72;5021770;28;20317;-56
2023/08/09 07:53:29;;;;;;;6.88;2.10;;;;;;;16.49;72.53;100548.50;5017456;28;20099;-55
2023/08/09 07:55:57;;;;;;;7.93;2.15;;;;;;;16.61;70.68;100552.75;5024252;28;20137;-60
2023/08/09 07:58:24;;;;;;;8.43;1.92;;;;;;;16.74;70.80;100550.75;5024706;28;20513;-54
2023/08/09 08:00:52;;;;;;;5.57;1.65;;;;;;;16.95;70.15;100548.91;5021498;28;20073;-57
2023/08/09 08:03:19;;;;;;;6.28;1.50;;;;;;;17.11;69.69;100559.06;5022450;28;20060;-56
2023/08/09 08:05:46;;;;;;;10.65;1.95;;;;;;;16.99;68.27;100568.09;5022138;28;20092;-57
2023/08/09 08:08:17;;;;;;;7.97;1.80;;;;;;;16.67;69.03;100561.06;5021897;28;20537;-57
2023/08/09 08:10:44;;;;;;;12.73;2.38;;;;;;;16.69;69.89;100566.22;5022505;28;20910;-59
2023/08/09 08:13:12;;;;;;;14.82;1.52;;;;;;;16.87;69.73;100567.34;5020608;28;20398;-54
2023/08/09 08:15:39;;;;;;;9.75;2.25;;;;;;;16.87;69.55;100574.47;5023752;28;20144;-59
2023/08/09 08:18:08;;;;;;;9.13;2.35;;;;;;;16.94;69.71;100583.63;5020196;28;20132;-51
2023/08/09 08:20:35;;;;;;;10.10;2.20;;;;;;;17.05;69.39;100583.53;5023735;28;20128;-56
2023/08/09 08:23:04;;;;;;;7.18;1.70;;;;;;;17.05;68.67;100582.69;5017023;28;20174;-56
2023/08/09 08:25:31;;;;;;;5.50;1.63;;;;;;;17.03;69.36;100576.66;5021496;28;20140;-56
2023/08/09 08:27:58;;;;;;;11.80;1.92;;;;;;;17.17;66.72;100585.13;5023245;28;20137;-57
2023/08/09 08:30:26;;;;;;;6.15;1.65;;;;;;;17.10;66.74;100583.97;5024173;28;20115;-57
2023/08/09 08:32:53;;;;;;;7.05;1.50;;;;;;;17.47;66.89;100586.06;5022545;28;20136;-55
2023/08/09 08:35:20;;;;;;;11.52;1.98;;;;;;;17.60;66.08;100581.31;5030484;28;20049;-58
2023/08/09 08:37:49;;;;;;;8.88;1.65;;;;;;;17.86;65.25;100587.00;5021701;28;20065;-57
2023/08/09 08:40:17;;;;;;;7.10;1.60;;;;;;;17.84;64.83;100590.81;5028912;28;20395;-55
2023/08/09 08:42:46;;;;;;;7.13;1.58;;;;;;;17.87;64.01;100594.00;5023560;28;20137;-52
2023/08/09 08:45:15;;;;;;;5.20;1.92;;;;;;;17.92;64.58;100591.81;5027621;28;20045;-56
2023/08/09 08:47:44;;;;;;;11.23;1.98;;;;;;;18.12;63.57;100591.81;5023894;28;20421;-54
2023/08/09 08:50:14;;;;;;;4.47;1.33;;;;;;;18.04;64.02;100604.97;5025672;28;20125;-56
2023/08/09 08:52:44;;;;;;;7.93;1.60;;;;;;;18.32;63.60;100597.97;5023753;28;20091;-57
2023/08/09 08:55:12;;;;;;;6.50;1.40;;;;;;;18.40;62.36;100614.09;5024658;28;20065;-55
2023/08/09 08:57:40;;;;;;;7.10;1.65;;;;;;;18.33;62.60;100613.84;5025516;28;20136;-59
2023/08/09 09:00:16;;;;;;;9.50;1.58;;;;;;;18.52;61.60;100610.31;5025608;28;20049;-55
2023/08/09 09:02:55;;;;;;;4.28;1.40;;;;;;;18.18;61.43;100620.56;5028052;28;20061;-56
2023/08/09 09:05:22;;;;;;;4.13;1.25;;;;;;;18.22;61.42;100621.97;5022261;28;20057;-51
2023/08/09 09:07:51;;;;;;;6.47;1.20;;;;;;;18.23;62.00;100621.81;5024783;28;20120;-57
2023/08/09 09:10:20;;;;;;;4.53;1.40;;;;;;;18.16;61.13;100634.03;5024991;28;20161;-58
2023/08/09 09:12:50;;;;;;;6.15;1.42;;;;;;;18.31;60.09;100630.94;5023547;28;20053;-57
2023/08/09 09:15:18;;;;;;;10.32;1.50;;;;;;;18.33;59.98;100629.00;5027886;28;20674;-54
2023/08/09 09:17:46;;;;;;;4.82;1.42;;;;;;;18.18;61.16;100633.88;5024126;28;20053;-56
2023/08/09 09:20:24;;;;;;;7.30;1.50;;;;;;;18.41;60.96;100629.09;5048494;28;20744;-57
2023/08/09 09:22:53;;;;;;;5.80;1.45;;;;;;;18.48;60.59;100635.56;5022810;28;20089;-57
2023/08/09 09:25:22;;;;;;;6.53;1.52;;;;;;;18.44;60.74;100637.66;5026984;28;20064;-52
2023/08/09 09:27:54;;;;;;;7.78;1.90;;;;;;;18.78;59.38;100636.41;5017746;28;20136;-56
2023/08/09 09:30:29;;;;;;;6.82;1.60;;;;;;;18.83;59.45;100640.34;5025327;28;20148;-56
2023/08/09 09:32:59;;;;;;;5.32;1.00;;;;;;;19.31;58.58;100634.00;5021261;28;20058;-58
2023/08/09 09:35:28;;;;;;;5.82;1.92;;;;;;;19.14;57.42;100632.97;5022913;28;20124;-53
2023/08/09 09:37:58;;;;;;;7.57;1.35;;;;;;;19.18;56.31;100629.00;5020063;28;20065;-58
2023/08/09 09:40:30;;;;;;;8.63;1.58;;;;;;;18.98;56.70;100625.56;5028694;28;20140;-53
2023/08/09 09:43:01;;;;;;;3.72;1.10;;;;;;;18.79;56.37;100628.28;5022435;28;20057;-56
2023/08/09 09:45:29;;;;;;;7.35;1.50;;;;;;;19.14;55.78;100640.97;5022870;28;20148;-58
2023/08/09 09:48:00;;;;;;;4.68;1.35;;;;;;;19.34;55.11;100628.38;5022250;28;20148;-59
2023/08/09 09:50:29;;;;;;;5.22;1.30;;;;;;;19.50;54.05;100627.75;5026275;28;20084;-57
2023/08/09 09:52:57;;;;;;;6.88;1.60;;;;;;;19.63;54.67;100644.31;5022548;28;20114;-56
2023/08/09 09:55:28;;;;;;;5.47;0.90;;;;;;;19.64;53.99;100634.47;5024297;28;20060;-57
2023/08/09 09:57:57;;;;;;;4.20;1.23;;;;;;;19.56;54.48;100637.84;5023063;28;20076;-57
2023/08/09 10:00:28;;;;;;;2.72;1.42;;;;;;;19.28;54.87;100636.97;5023539;28;20149;-58
2023/08/09 10:02:59;;;;;;;5.35;1.40;;;;;;;18.86;55.66;100656.03;5026373;28;20072;-58
2023/08/09 10:05:35;;;;;;;5.05;1.20;;;;;;;19.07;55.89;100637.19;5022892;28;20124;-56
2023/08/09 10:08:06;;;;;;;6.35;1.25;;;;;;;19.22;54.38;100630.38;5025272;28;20364;-57
2023/08/09 10:10:39;;;;;;;3.67;1.30;;;;;;;19.27;54.61;100634.44;5023103;28;20080;-54
2023/08/09 10:13:07;;;;;;;5.40;1.35;;;;;;;19.49;54.29;100636.72;5022303;28;20121;-56
2023/08/09 10:15:37;;;;;;;6.97;1.40;;;;;;;19.65;53.06;100645.00;5020458;28;20046;-54
2023/08/09 10:18:10;;;;;;;4.68;1.20;;;;;;;19.57;53.18;100644.00;5016471;28;20119;-54
2023/08/09 10:20:47;;;;;;;5.43;1.35;;;;;;;19.56;52.62;100640.50;5026816;28;20856;-57
2023/08/09 10:23:22;;;;;;;9.25;1.30;;;;;;;19.54;52.42;100642.47;5026526;28;20061;-55
2023/08/09 10:25:50;;;;;;;;;;;;;;;19.96;51.94;100639.34;5021665;28;20046;-58
2023/08/09 10:28:18;;;;;;;12.75;1.92;;;;;;;20.38;52.01;100636.06;5019656;28;19921;-58
2023/08/09 10:30:51;;;;;;;4.57;1.27;;;;;;;20.61;51.11;100642.63;5024587;28;20070;-58
2023/08/09 10:33:19;;;;;;;5.57;1.48;;;;;;;20.56;50.13;100642.25;5023767;28;20077;-57
2023/08/09 10:35:54;;;;;;;6.82;1.60;;;;;;;20.45;50.54;100648.66;5025332;28;20037;-58
2023/08/09 10:38:39;;;;;;;4.18;0.90;;;;;;;20.45;49.91;100656.69;5022725;28;20141;-59
2023/08/09 10:41:14;;;;;;;6.68;1.55;;;;;;;20.00;50.19;100648.72;5024029;28;20141;-58
2023/08/09 10:43:41;;;;;;;5.35;1.30;;;;;;;19.72;51.72;100655.91;5019866;28;20152;-53
2023/08/09 10:46:24;;;;;;;6.28;1.38;;;;;;;19.54;52.95;100658.50;5024933;28;20052;-58
2023/08/09 10:48:53;;;;;;;3.33;1.30;;;;;;;19.55;53.25;100656.69;5021876;28;20138;-55
2023/08/09 10:51:22;;;;;;;4.63;1.42;;;;;;;19.58;53.33;100664.38;5021032;28;20049;-54
2023/08/09 10:54:01;;;;;;;14.45;1.88;;;;;;;19.21;54.22;100654.56;5023295;28;20068;-56
2023/08/09 10:56:41;;;;;;;9.15;1.70;;;;;;;19.21;54.74;100663.41;5025053;28;20237;-56
2023/08/09 10:59:13;;;;;;;5.70;1.52;;;;;;;19.39;54.58;100668.81;5024835;28;20146;-55
2023/08/09 11:01:41;;;;;;;4.60;1.30;;;;;;;19.33;54.50;100661.41;5020792;28;20049;-53
2023/08/09 11:04:10;;;;;;;5.45;1.40;;;;;;;19.48;53.30;100667.94;5025009;28;20156;-58
2023/08/09 11:06:40;;;;;;;5.70;1.80;;;;;;;19.41;52.99;100660.69;5020163;28;20135;-56
2023/08/09 11:09:09;;;;;;;5.18;1.27;;;;;;;19.48;52.82;100662.59;5022953;28;20065;-55
2023/08/09 11:11:37;;;;;;;4.88;1.45;;;;;;;19.52;52.98;100663.16;5020766;28;20084;-58
2023/08/09 11:14:05;;;;;;;4.80;1.30;;;;;;;19.59;53.15;100666.09;5020767;28;20136;-58
2023/08/09 11:16:32;;;;;;;3.97;1.25;;;;;;;19.57;53.58;100676.91;5020914;28;20410;-56
2023/08/09 11:19:51;;;;;;;4.45;1.20;;;;;;;19.71;54.61;100683.63;5020269;28;20164;-55
2023/08/09 11:22:18;;;;;;;3.75;1.15;;;;;;;19.63;54.13;100681.69;5020635;28;20421;-56
2023/08/09 11:24:45;;;;;;;6.38;1.75;;;;;;;19.95;53.67;100683.09;5023896;28;20389;-56
2023/08/09 11:27:13;;;;;;;6.45;1.85;;;;;;;20.21;52.79;100692.03;5022154;28;20123;-57
2023/08/09 11:29:40;;;;;;;7.25;1.70;;;;;;;20.14;52.79;100685.63;5020298;28;20088;-58
2023/08/09 11:32:07;;;;;;;4.95;1.50;;;;;;;20.80;52.19;100688.94;5019155;28;20095;-59
2023/08/09 11:34:34;;;;;;;4.22;1.30;;;;;;;21.25;50.80;100683.38;5025691;28;20073;-52
2023/08/09 11:37:02;;;;;;;7.93;1.52;;;;;;;21.46;49.45;100685.72;5019151;28;20470;-57
2023/08/09 11:39:29;;;;;;;6.30;1.30;;;;;;;21.19;49.14;100700.09;5024228;28;21018;-52